createdAt,value
2018-08-14T00:00:53.517Z,0.00
2018-08-14T00:01:53.519Z,0.00
2018-08-14T00:02:53.525Z,0.00
2018-08-14T00:03:53.522Z,0.00
2018-08-14T00:04:53.543Z,0.00
2018-08-14T00:05:53.525Z,0.00
2018-08-14T00:06:53.529Z,0.00
2018-08-14T00:07:53.575Z,0.00
2018-08-14T00:08:53.530Z,0.00
2018-08-14T00:09:53.532Z,0.00
2018-08-14T00:10:53.535Z,0.00
2018-08-14T00:11:53.536Z,0.00
2018-08-14T00:12:53.538Z,0.00
2018-08-14T00:13:53.540Z,0.00
2018-08-14T00:14:53.541Z,0.00
2018-08-14T00:15:53.543Z,0.00
2018-08-14T00:16:53.544Z,0.00
2018-08-14T00:17:53.546Z,0.00
2018-08-14T00:18:53.551Z,0.00
2018-08-14T00:19:53.550Z,0.00
2018-08-14T00:20:53.551Z,0.00
2018-08-14T00:21:53.554Z,0.00
2018-08-14T00:22:53.555Z,0.00
2018-08-14T00:23:53.561Z,0.00
2018-08-14T00:24:53.557Z,0.00
2018-08-14T00:25:53.560Z,0.00
2018-08-14T00:26:53.562Z,0.00
2018-08-14T00:27:53.563Z,0.00
2018-08-14T00:28:53.565Z,0.00
2018-08-14T00:29:53.566Z,0.00
2018-08-14T00:30:53.569Z,0.00
2018-08-14T00:31:53.570Z,0.00
2018-08-14T00:32:53.572Z,0.00
2018-08-14T00:33:53.574Z,0.00
2018-08-14T00:34:53.576Z,0.00
2018-08-14T00:35:53.576Z,0.00
2018-08-14T00:36:53.577Z,0.00
2018-08-14T00:37:53.580Z,0.00
2018-08-14T00:38:53.581Z,0.00
2018-08-14T00:39:53.583Z,0.00
2018-08-14T00:40:53.584Z,0.00
2018-08-14T00:41:53.586Z,0.00
2018-08-14T00:42:53.591Z,0.00
2018-08-14T00:43:53.590Z,0.00
2018-08-14T00:44:53.591Z,0.00
2018-08-14T00:45:53.592Z,0.00
2018-08-14T00:46:53.596Z,0.00
2018-08-14T00:47:53.596Z,0.00
2018-08-14T00:48:53.597Z,0.00
2018-08-14T00:49:53.601Z,0.00
2018-08-14T00:50:53.605Z,0.00
2018-08-14T00:51:53.602Z,0.00
2018-08-14T00:52:53.604Z,0.00
2018-08-14T00:53:53.604Z,0.00
2018-08-14T00:54:53.607Z,0.00
2018-08-14T00:55:53.608Z,0.00
2018-08-14T00:56:53.610Z,0.00
2018-08-14T00:57:53.611Z,0.00
2018-08-14T00:58:53.613Z,0.00
2018-08-14T00:59:53.615Z,0.00
2018-08-14T01:00:53.617Z,0.00
2018-08-14T01:01:53.618Z,0.00
2018-08-14T01:02:53.617Z,0.00
2018-08-14T01:03:53.620Z,0.00
2018-08-14T01:04:53.624Z,0.00
2018-08-14T01:05:53.625Z,0.00
2018-08-14T01:06:53.624Z,0.00
2018-08-14T01:07:53.626Z,0.00
2018-08-14T01:08:53.626Z,0.00
2018-08-14T01:09:53.628Z,0.00
2018-08-14T01:10:53.631Z,0.00
2018-08-14T01:11:53.631Z,0.00
2018-08-14T01:12:53.633Z,0.00
2018-08-14T01:13:53.636Z,0.00
2018-08-14T01:14:53.636Z,0.00
2018-08-14T01:15:53.637Z,0.00
2018-08-14T01:16:53.640Z,0.00
2018-08-14T01:17:53.640Z,0.00
2018-08-14T01:18:53.642Z,0.00
2018-08-14T01:19:53.645Z,0.00
2018-08-14T01:20:53.644Z,0.00
2018-08-14T01:21:53.649Z,0.00
2018-08-14T01:22:53.647Z,0.00
2018-08-14T01:23:53.649Z,0.00
2018-08-14T01:24:53.649Z,0.00
2018-08-14T01:25:53.653Z,0.00
2018-08-14T01:26:53.654Z,0.00
2018-08-14T01:27:53.663Z,0.00
2018-08-14T01:28:53.657Z,0.00
2018-08-14T01:29:53.659Z,0.00
2018-08-14T01:30:53.661Z,0.00
2018-08-14T01:31:53.662Z,0.00
2018-08-14T01:32:53.663Z,0.00
2018-08-14T01:33:53.664Z,0.00
2018-08-14T01:34:53.668Z,0.00
2018-08-14T01:35:53.668Z,0.00
2018-08-14T01:36:53.668Z,0.00
2018-08-14T01:37:53.671Z,0.00
2018-08-14T01:38:53.672Z,0.00
2018-08-14T01:39:53.675Z,0.00
2018-08-14T01:40:53.675Z,0.00
2018-08-14T01:41:53.677Z,0.00
2018-08-14T01:42:53.681Z,0.00
2018-08-14T01:43:53.681Z,0.00
2018-08-14T01:44:53.680Z,0.00
2018-08-14T01:45:53.684Z,0.00
2018-08-14T01:46:53.684Z,0.00
2018-08-14T01:47:53.686Z,0.00
2018-08-14T01:48:53.717Z,0.00
2018-08-14T01:49:53.690Z,0.00
2018-08-14T01:50:53.691Z,0.00
2018-08-14T01:51:53.692Z,0.00
2018-08-14T01:52:53.694Z,0.00
2018-08-14T01:53:53.695Z,0.00
2018-08-14T01:54:53.697Z,0.00
2018-08-14T01:55:53.699Z,0.00
2018-08-14T01:56:53.700Z,0.00
2018-08-14T01:57:53.702Z,0.00
2018-08-14T01:58:53.703Z,0.00
2018-08-14T01:59:53.706Z,0.00
2018-08-14T02:00:53.707Z,0.00
2018-08-14T02:01:53.708Z,0.00
2018-08-14T02:02:53.712Z,0.00
2018-08-14T02:03:53.710Z,0.00
2018-08-14T02:04:53.712Z,0.00
2018-08-14T02:05:53.713Z,0.00
2018-08-14T02:06:53.716Z,0.00
2018-08-14T02:07:53.716Z,0.00
2018-08-14T02:08:53.719Z,0.00
2018-08-14T02:09:53.719Z,0.00
2018-08-14T02:10:53.722Z,0.00
2018-08-14T02:11:53.724Z,0.00
2018-08-14T02:12:53.725Z,0.00
2018-08-14T02:13:53.726Z,0.00
2018-08-14T02:14:53.731Z,0.00
2018-08-14T02:15:53.729Z,0.00
2018-08-14T02:16:53.730Z,0.00
2018-08-14T02:17:53.730Z,0.00
2018-08-14T02:18:53.732Z,0.00
2018-08-14T02:19:53.734Z,0.00
2018-08-14T02:20:53.734Z,0.00
2018-08-14T02:21:53.736Z,0.00
2018-08-14T02:22:53.738Z,0.00
2018-08-14T02:23:53.739Z,0.00
2018-08-14T02:24:53.740Z,0.00
2018-08-14T02:25:53.743Z,0.00
2018-08-14T02:26:53.743Z,0.00
2018-08-14T02:27:53.746Z,0.00
2018-08-14T02:28:53.746Z,0.00
2018-08-14T02:29:53.749Z,0.00
2018-08-14T02:30:53.750Z,0.00
2018-08-14T02:31:53.751Z,0.00
2018-08-14T02:32:53.753Z,0.00
2018-08-14T02:33:53.753Z,0.00
2018-08-14T02:34:53.756Z,0.00
2018-08-14T02:35:53.756Z,0.00
2018-08-14T02:36:53.757Z,0.00
2018-08-14T02:37:53.764Z,0.00
2018-08-14T02:38:53.761Z,0.00
2018-08-14T02:39:53.763Z,0.00
2018-08-14T02:40:53.763Z,0.00
2018-08-14T02:41:53.766Z,0.00
2018-08-14T02:42:53.766Z,0.00
2018-08-14T02:43:53.769Z,0.00
2018-08-14T02:44:53.769Z,0.00
2018-08-14T02:45:53.772Z,0.00
2018-08-14T02:46:53.771Z,0.00
2018-08-14T02:47:53.774Z,0.00
2018-08-14T02:48:53.774Z,0.00
2018-08-14T02:49:53.776Z,0.00
2018-08-14T02:50:53.782Z,0.00
2018-08-14T02:51:53.779Z,0.00
2018-08-14T02:52:53.780Z,0.00
2018-08-14T02:53:53.781Z,0.00
2018-08-14T02:54:53.782Z,0.00
2018-08-14T02:55:53.785Z,0.00
2018-08-14T02:56:53.784Z,0.00
2018-08-14T02:57:53.787Z,0.00
2018-08-14T02:58:53.787Z,0.00
2018-08-14T02:59:53.790Z,0.00
2018-08-14T03:00:53.790Z,0.00
2018-08-14T03:01:53.792Z,0.00
2018-08-14T03:02:53.794Z,0.00
2018-08-14T03:03:53.795Z,0.00
2018-08-14T03:04:53.795Z,0.00
2018-08-14T03:05:53.798Z,0.00
2018-08-14T03:06:53.798Z,0.00
2018-08-14T03:07:53.799Z,0.00
2018-08-14T03:08:53.800Z,0.00
2018-08-14T03:09:53.802Z,0.00
2018-08-14T03:10:53.803Z,0.00
2018-08-14T03:11:53.804Z,0.00
2018-08-14T03:12:53.805Z,0.00
2018-08-14T03:13:53.807Z,0.00
2018-08-14T03:14:53.810Z,0.00
2018-08-14T03:15:53.815Z,0.00
2018-08-14T03:16:53.812Z,0.00
2018-08-14T03:17:53.811Z,0.00
2018-08-14T03:18:53.814Z,0.00
2018-08-14T03:19:53.815Z,0.00
2018-08-14T03:20:53.815Z,0.00
2018-08-14T03:21:53.815Z,0.00
2018-08-14T03:22:53.817Z,0.00
2018-08-14T03:23:53.819Z,0.00
2018-08-14T03:24:53.819Z,0.00
2018-08-14T03:25:53.820Z,0.00
2018-08-14T03:26:53.823Z,0.00
2018-08-14T03:27:53.826Z,0.00
2018-08-14T03:28:53.824Z,0.00
2018-08-14T03:29:53.826Z,0.00
2018-08-14T03:30:53.827Z,0.00
2018-08-14T03:31:53.828Z,0.00
2018-08-14T03:32:53.828Z,0.00
2018-08-14T03:33:53.831Z,0.00
2018-08-14T03:34:53.831Z,0.00
2018-08-14T03:35:53.833Z,0.00
2018-08-14T03:36:53.833Z,0.00
2018-08-14T03:37:53.835Z,0.00
2018-08-14T03:38:53.835Z,0.00
2018-08-14T03:39:53.838Z,0.00
2018-08-14T03:40:53.838Z,0.00
2018-08-14T03:41:53.840Z,0.00
2018-08-14T03:42:53.843Z,0.00
2018-08-14T03:43:53.842Z,0.00
2018-08-14T03:44:53.842Z,0.00
2018-08-14T03:45:53.844Z,0.00
2018-08-14T03:46:53.846Z,0.00
2018-08-14T03:47:53.847Z,0.00
2018-08-14T03:48:53.847Z,0.00
2018-08-14T03:49:53.849Z,0.00
2018-08-14T03:50:53.851Z,0.00
2018-08-14T03:51:53.851Z,0.00
2018-08-14T03:52:53.853Z,0.00
2018-08-14T03:53:53.854Z,0.00
2018-08-14T03:54:53.855Z,0.00
2018-08-14T03:55:53.855Z,0.00
2018-08-14T03:56:53.857Z,0.00
2018-08-14T03:57:53.858Z,0.00
2018-08-14T03:58:53.860Z,0.00
2018-08-14T03:59:53.861Z,0.00
2018-08-14T04:00:53.860Z,0.00
2018-08-14T04:01:53.865Z,0.00
2018-08-14T04:02:53.863Z,0.00
2018-08-14T04:03:53.865Z,0.00
2018-08-14T04:04:53.864Z,0.00
2018-08-14T04:05:53.866Z,0.00
2018-08-14T04:06:53.868Z,0.00
2018-08-14T04:07:53.869Z,0.00
2018-08-14T04:08:53.868Z,0.00
2018-08-14T04:09:53.870Z,0.00
2018-08-14T04:10:53.872Z,0.00
2018-08-14T04:11:53.874Z,0.00
2018-08-14T04:12:53.873Z,0.00
2018-08-14T04:13:53.876Z,0.00
2018-08-14T04:14:53.876Z,5.63
2018-08-14T04:15:53.877Z,5.63
2018-08-14T04:16:53.878Z,5.63
2018-08-14T04:17:53.879Z,5.63
2018-08-14T04:18:53.881Z,5.63
2018-08-14T04:19:53.881Z,5.63
2018-08-14T04:20:53.882Z,5.63
2018-08-14T04:21:53.884Z,5.63
2018-08-14T04:22:53.884Z,5.63
2018-08-14T04:23:53.885Z,11.25
2018-08-14T04:24:53.886Z,11.25
2018-08-14T04:25:53.888Z,11.25
2018-08-14T04:26:53.888Z,11.25
2018-08-14T04:27:53.890Z,11.25
2018-08-14T04:28:53.890Z,11.25
2018-08-14T04:29:53.891Z,11.25
2018-08-14T04:30:53.892Z,11.25
2018-08-14T04:31:53.895Z,16.88
2018-08-14T04:32:53.895Z,16.88
2018-08-14T04:33:53.896Z,16.88
2018-08-14T04:34:53.898Z,16.88
2018-08-14T04:35:53.899Z,16.88
2018-08-14T04:36:53.899Z,16.88
2018-08-14T04:37:53.900Z,16.88
2018-08-14T04:38:53.901Z,16.88
2018-08-14T04:39:53.903Z,16.88
2018-08-14T04:40:53.904Z,22.50
2018-08-14T04:41:53.907Z,22.50
2018-08-14T04:42:53.906Z,22.50
2018-08-14T04:43:53.908Z,22.50
2018-08-14T04:44:53.908Z,22.50
2018-08-14T04:45:53.925Z,28.13
2018-08-14T04:46:53.909Z,28.13
2018-08-14T04:47:53.910Z,28.13
2018-08-14T04:48:53.910Z,28.13
2018-08-14T04:49:53.911Z,33.75
2018-08-14T04:50:53.914Z,33.75
2018-08-14T04:51:53.915Z,33.75
2018-08-14T04:52:53.915Z,33.75
2018-08-14T04:53:53.932Z,33.75
2018-08-14T04:54:53.918Z,39.38
2018-08-14T04:55:53.918Z,39.38
2018-08-14T04:56:53.922Z,39.38
2018-08-14T04:57:53.919Z,45.00
2018-08-14T04:58:53.920Z,45.00
2018-08-14T04:59:53.921Z,50.63
2018-08-14T05:00:53.923Z,50.63
2018-08-14T05:01:53.927Z,50.63
2018-08-14T05:02:53.925Z,50.63
2018-08-14T05:03:53.926Z,50.63
2018-08-14T05:04:53.926Z,56.25
2018-08-14T05:05:53.928Z,56.25
2018-08-14T05:06:53.929Z,61.88
2018-08-14T05:07:53.931Z,67.50
2018-08-14T05:08:53.979Z,67.50
2018-08-14T05:09:53.932Z,67.50
2018-08-14T05:10:53.932Z,67.50
2018-08-14T05:11:53.934Z,61.88
2018-08-14T05:12:53.934Z,61.88
2018-08-14T05:13:53.937Z,56.25
2018-08-14T05:14:53.937Z,56.25
2018-08-14T05:15:53.938Z,50.63
2018-08-14T05:16:53.940Z,45.00
2018-08-14T05:17:53.941Z,39.38
2018-08-14T05:18:53.941Z,39.38
2018-08-14T05:19:53.941Z,39.38
2018-08-14T05:20:53.944Z,39.38
2018-08-14T05:21:53.943Z,39.38
2018-08-14T05:22:53.945Z,39.38
2018-08-14T05:23:53.946Z,45.00
2018-08-14T05:24:53.947Z,45.00
2018-08-14T05:25:53.989Z,45.00
2018-08-14T05:26:53.949Z,45.00
2018-08-14T05:27:53.951Z,39.38
2018-08-14T05:28:53.953Z,33.75
2018-08-14T05:29:53.952Z,33.75
2018-08-14T05:30:53.954Z,33.75
2018-08-14T05:31:53.954Z,28.13
2018-08-14T05:32:53.956Z,28.13
2018-08-14T05:33:53.993Z,28.13
2018-08-14T05:34:53.959Z,28.13
2018-08-14T05:35:53.960Z,28.13
2018-08-14T05:36:53.960Z,28.13
2018-08-14T05:37:53.962Z,28.13
2018-08-14T05:38:53.964Z,28.13
2018-08-14T05:39:53.964Z,28.13
2018-08-14T05:40:53.964Z,28.13
2018-08-14T05:41:53.966Z,33.75
2018-08-14T05:42:53.968Z,28.13
2018-08-14T05:43:53.971Z,28.13
2018-08-14T05:44:53.969Z,22.50
2018-08-14T05:45:53.971Z,16.88
2018-08-14T05:46:53.974Z,16.88
2018-08-14T05:47:53.975Z,16.88
2018-08-14T05:48:53.974Z,16.88
2018-08-14T05:49:53.977Z,11.25
2018-08-14T05:50:53.978Z,11.25
2018-08-14T05:51:53.980Z,11.25
2018-08-14T05:52:53.991Z,16.88
2018-08-14T05:53:53.981Z,22.50
2018-08-14T05:54:53.984Z,22.50
2018-08-14T05:55:53.983Z,22.50
2018-08-14T05:56:54.031Z,22.50
2018-08-14T05:57:54.063Z,28.13
2018-08-14T05:58:54.067Z,28.13
2018-08-14T05:59:54.076Z,28.13
2018-08-14T06:00:54.104Z,28.13
2018-08-14T06:01:53.992Z,28.13
2018-08-14T06:02:53.992Z,33.75
2018-08-14T06:03:53.995Z,33.75
2018-08-14T06:04:53.995Z,33.75
2018-08-14T06:05:54.047Z,39.38
2018-08-14T06:06:53.997Z,39.38
2018-08-14T06:07:54.000Z,39.38
2018-08-14T06:08:54.000Z,39.38
2018-08-14T06:09:54.000Z,39.38
2018-08-14T06:10:54.378Z,39.38
2018-08-14T06:11:54.003Z,39.38
2018-08-14T06:12:54.005Z,39.38
2018-08-14T06:13:54.005Z,39.38
2018-08-14T06:14:54.006Z,45.00
2018-08-14T06:15:54.008Z,56.25
2018-08-14T06:16:54.073Z,61.88
2018-08-14T06:17:54.010Z,67.50
2018-08-14T06:18:54.011Z,73.13
2018-08-14T06:19:54.012Z,84.38
2018-08-14T06:20:54.012Z,90.00
2018-08-14T06:21:54.014Z,95.63
2018-08-14T06:22:54.015Z,101.25
2018-08-14T06:24:27.318Z,101.25
2018-08-14T06:24:54.020Z,101.25
2018-08-14T06:25:54.018Z,101.25
2018-08-14T06:26:54.021Z,101.25
2018-08-14T06:27:54.022Z,101.25
2018-08-14T06:28:54.096Z,95.63
2018-08-14T06:29:54.028Z,95.63
2018-08-14T06:30:54.026Z,95.63
2018-08-14T06:31:54.026Z,101.25
2018-08-14T06:32:54.027Z,112.50
2018-08-14T06:33:54.028Z,129.38
2018-08-14T06:34:54.032Z,135.00
2018-08-14T06:35:54.167Z,129.38
2018-08-14T06:36:54.088Z,129.38
2018-08-14T06:37:54.034Z,135.00
2018-08-14T06:38:54.035Z,140.63
2018-08-14T06:39:54.037Z,140.63
2018-08-14T06:40:54.037Z,135.00
2018-08-14T06:41:54.039Z,129.38
2018-08-14T06:42:54.040Z,135.00
2018-08-14T06:43:54.174Z,146.25
2018-08-14T06:44:54.126Z,151.88
2018-08-14T06:45:54.148Z,157.50
2018-08-14T06:46:54.140Z,157.50
2018-08-14T06:47:54.132Z,168.75
2018-08-14T06:48:54.321Z,180.00
2018-08-14T06:49:54.050Z,185.63
2018-08-14T06:50:54.052Z,196.88
2018-08-14T06:51:54.054Z,208.13
2018-08-14T06:52:54.248Z,225.00
2018-08-14T06:53:54.057Z,241.88
2018-08-14T06:54:54.295Z,241.88
2018-08-14T06:55:54.071Z,241.88
2018-08-14T06:56:54.063Z,241.88
2018-08-14T06:57:54.064Z,236.25
2018-08-14T06:58:54.065Z,230.63
2018-08-14T06:59:54.065Z,208.13
2018-08-14T07:00:54.068Z,213.75
2018-08-14T07:01:54.068Z,202.50
2018-08-14T07:02:54.071Z,196.88
2018-08-14T07:03:54.076Z,191.25
2018-08-14T07:04:54.074Z,196.88
2018-08-14T07:05:54.203Z,196.88
2018-08-14T07:06:54.379Z,191.25
2018-08-14T07:07:54.356Z,185.63
2018-08-14T07:08:54.417Z,174.38
2018-08-14T07:09:54.083Z,163.13
2018-08-14T07:10:54.084Z,157.50
2018-08-14T07:11:54.087Z,146.25
2018-08-14T07:12:54.090Z,146.25
2018-08-14T07:13:54.092Z,140.63
2018-08-14T07:14:54.092Z,135.00
2018-08-14T07:15:54.094Z,135.00
2018-08-14T07:16:54.096Z,135.00
2018-08-14T07:17:54.308Z,135.00
2018-08-14T07:18:54.103Z,140.63
2018-08-14T07:19:54.102Z,140.63
2018-08-14T07:20:54.102Z,135.00
2018-08-14T07:21:54.105Z,129.38
2018-08-14T07:22:54.107Z,135.00
2018-08-14T07:23:54.111Z,140.63
2018-08-14T07:24:54.114Z,163.13
2018-08-14T07:25:54.114Z,191.25
2018-08-14T07:26:54.114Z,213.75
2018-08-14T07:27:54.117Z,241.88
2018-08-14T07:28:54.143Z,247.50
2018-08-14T07:29:54.120Z,258.75
2018-08-14T07:30:54.123Z,247.50
2018-08-14T07:31:54.124Z,241.88
2018-08-14T07:32:54.128Z,241.88
2018-08-14T07:33:54.127Z,236.25
2018-08-14T07:34:54.131Z,208.13
2018-08-14T07:35:54.784Z,185.63
2018-08-14T07:36:54.135Z,163.13
2018-08-14T07:37:54.138Z,151.88
2018-08-14T07:38:54.348Z,135.00
2018-08-14T07:39:54.347Z,118.13
2018-08-14T07:40:54.142Z,118.13
2018-08-14T07:41:54.144Z,112.50
2018-08-14T07:42:54.154Z,112.50
2018-08-14T07:43:54.148Z,106.88
2018-08-14T07:44:54.150Z,112.50
2018-08-14T07:45:54.153Z,118.13
2018-08-14T07:46:54.153Z,123.75
2018-08-14T07:47:54.156Z,129.38
2018-08-14T07:48:54.159Z,135.00
2018-08-14T07:49:54.161Z,135.00
2018-08-14T07:50:54.164Z,140.63
2018-08-14T07:51:54.165Z,151.88
2018-08-14T07:52:54.166Z,168.75
2018-08-14T07:53:54.168Z,185.63
2018-08-14T07:54:54.170Z,219.38
2018-08-14T07:55:54.175Z,236.25
2018-08-14T07:56:54.836Z,241.88
2018-08-14T07:57:54.204Z,247.50
2018-08-14T07:58:54.262Z,253.13
2018-08-14T07:59:54.179Z,264.38
2018-08-14T08:00:54.182Z,275.63
2018-08-14T08:01:54.184Z,275.63
2018-08-14T08:02:54.189Z,275.63
2018-08-14T08:03:54.189Z,275.63
2018-08-14T08:04:54.189Z,275.63
2018-08-14T08:05:54.194Z,286.88
2018-08-14T08:06:54.195Z,286.88
2018-08-14T08:07:54.201Z,309.38
2018-08-14T08:08:54.199Z,326.25
2018-08-14T08:09:54.201Z,343.13
2018-08-14T08:10:54.204Z,388.13
2018-08-14T08:11:54.233Z,376.88
2018-08-14T08:12:54.210Z,433.13
2018-08-14T08:13:54.213Z,478.13
2018-08-14T08:14:54.214Z,466.88
2018-08-14T08:15:54.218Z,433.13
2018-08-14T08:16:54.219Z,388.13
2018-08-14T08:17:54.536Z,365.63
2018-08-14T08:18:54.225Z,365.63
2018-08-14T08:19:54.302Z,399.38
2018-08-14T08:20:54.231Z,427.50
2018-08-14T08:21:54.235Z,421.88
2018-08-14T08:22:54.239Z,343.13
2018-08-14T08:23:54.243Z,343.13
2018-08-14T08:24:54.246Z,309.38
2018-08-14T08:25:54.249Z,281.25
2018-08-14T08:26:54.273Z,286.88
2018-08-14T08:27:54.258Z,309.38
2018-08-14T08:28:54.258Z,337.50
2018-08-14T08:29:54.259Z,348.75
2018-08-14T08:30:54.264Z,348.75
2018-08-14T08:31:54.269Z,337.50
2018-08-14T08:32:54.271Z,393.75
2018-08-14T08:33:54.274Z,365.63
2018-08-14T08:34:54.280Z,354.38
2018-08-14T08:35:54.283Z,320.63
2018-08-14T08:36:54.283Z,303.75
2018-08-14T08:37:54.290Z,337.50
2018-08-14T08:38:54.292Z,371.25
2018-08-14T08:39:54.294Z,410.63
2018-08-14T08:40:54.298Z,483.75
2018-08-14T08:41:54.314Z,500.63
2018-08-14T08:42:54.305Z,444.38
2018-08-14T08:43:54.308Z,365.63
2018-08-14T08:44:54.312Z,343.13
2018-08-14T08:45:54.316Z,337.50
2018-08-14T08:46:54.351Z,326.25
2018-08-14T08:47:54.323Z,303.75
2018-08-14T08:48:54.327Z,270.00
2018-08-14T08:49:54.337Z,286.88
2018-08-14T08:50:54.388Z,292.50
2018-08-14T08:51:54.341Z,331.88
2018-08-14T08:52:54.339Z,382.50
2018-08-14T08:53:54.343Z,450.00
2018-08-14T08:54:54.346Z,511.88
2018-08-14T08:55:54.350Z,523.13
2018-08-14T08:56:54.353Z,568.13
2018-08-14T08:57:54.357Z,753.75
2018-08-14T08:58:54.361Z,551.25
2018-08-14T08:59:54.364Z,1811.25
2018-08-14T09:00:54.368Z,742.50
2018-08-14T09:01:54.374Z,455.63
2018-08-14T09:02:54.376Z,365.63
2018-08-14T09:03:54.446Z,331.88
2018-08-14T09:04:54.560Z,292.50
2018-08-14T09:05:54.388Z,371.25
2018-08-14T09:06:54.393Z,697.50
2018-08-14T09:07:54.396Z,585.00
2018-08-14T09:08:54.401Z,1102.50
2018-08-14T09:09:54.411Z,405.00
2018-08-14T09:10:54.409Z,309.38
2018-08-14T09:11:54.415Z,326.25
2018-08-14T09:12:54.417Z,376.88
2018-08-14T09:13:54.422Z,393.75
2018-08-14T09:14:54.871Z,388.13
2018-08-14T09:15:54.431Z,382.50
2018-08-14T09:16:54.436Z,393.75
2018-08-14T09:17:54.441Z,427.50
2018-08-14T09:18:54.446Z,483.75
2018-08-14T09:19:54.450Z,534.38
2018-08-14T09:20:54.453Z,624.38
2018-08-14T09:21:54.459Z,883.13
2018-08-14T09:22:54.465Z,956.25
2018-08-14T09:23:54.469Z,838.13
2018-08-14T09:24:54.472Z,596.25
2018-08-14T09:25:54.477Z,450.00
2018-08-14T09:26:54.490Z,421.88
2018-08-14T09:27:54.487Z,433.13
2018-08-14T09:28:54.491Z,450.00
2018-08-14T09:29:54.495Z,466.88
2018-08-14T09:30:54.503Z,517.50
2018-08-14T09:31:54.507Z,877.50
2018-08-14T09:32:54.510Z,1164.38
2018-08-14T09:33:54.518Z,776.25
2018-08-14T09:34:54.521Z,1276.88
2018-08-14T09:35:54.597Z,1147.50
2018-08-14T09:36:54.553Z,1260.00
2018-08-14T09:37:54.535Z,1710.00
2018-08-14T09:38:54.541Z,888.75
2018-08-14T09:39:54.547Z,770.63
2018-08-14T09:40:54.649Z,1648.13
2018-08-14T09:41:54.654Z,2480.63
2018-08-14T09:42:54.565Z,1828.13
2018-08-14T09:43:54.570Z,1980.00
2018-08-14T09:44:54.577Z,1203.75
2018-08-14T09:45:54.585Z,2165.63
2018-08-14T09:46:54.592Z,1811.25
2018-08-14T09:47:54.598Z,1586.25
2018-08-14T09:48:54.604Z,2131.88
2018-08-14T09:49:54.664Z,2289.38
2018-08-14T09:50:54.684Z,1890.00
2018-08-14T09:51:54.687Z,2086.88
2018-08-14T09:52:54.740Z,2328.75
2018-08-14T09:53:54.703Z,1895.63
2018-08-14T09:54:54.652Z,2131.88
2018-08-14T09:55:54.661Z,2210.63
2018-08-14T09:56:54.670Z,2013.75
2018-08-14T09:57:54.678Z,815.63
2018-08-14T09:58:54.690Z,720.00
2018-08-14T09:59:54.696Z,736.88
2018-08-14T10:00:54.752Z,421.88
2018-08-14T10:01:54.848Z,320.63
2018-08-14T10:02:54.722Z,264.38
2018-08-14T10:03:54.734Z,275.63
2018-08-14T10:04:54.739Z,506.25
2018-08-14T10:05:54.766Z,253.13
2018-08-14T10:06:54.755Z,292.50
2018-08-14T10:07:54.769Z,1445.63
2018-08-14T10:08:54.811Z,1743.75
2018-08-14T10:09:54.778Z,1968.75
2018-08-14T10:10:54.785Z,1839.38
2018-08-14T10:11:54.791Z,556.88
2018-08-14T10:12:54.802Z,500.63
2018-08-14T10:13:54.805Z,613.13
2018-08-14T10:14:54.813Z,1659.38
2018-08-14T10:15:54.821Z,2244.38
2018-08-14T10:16:54.829Z,691.88
2018-08-14T10:17:54.836Z,635.63
2018-08-14T10:18:54.843Z,483.75
2018-08-14T10:19:54.881Z,2503.13
2018-08-14T10:20:54.937Z,675.00
2018-08-14T10:21:54.866Z,759.38
2018-08-14T10:22:54.873Z,798.75
2018-08-14T10:23:54.880Z,556.88
2018-08-14T10:24:54.887Z,365.63
2018-08-14T10:25:54.894Z,393.75
2018-08-14T10:26:54.903Z,450.00
2018-08-14T10:27:54.924Z,736.88
2018-08-14T10:28:54.976Z,708.75
2018-08-14T10:29:54.923Z,697.50
2018-08-14T10:30:54.932Z,826.88
2018-08-14T10:31:54.936Z,607.50
2018-08-14T10:32:54.942Z,658.13
2018-08-14T10:33:54.948Z,1766.25
2018-08-14T10:34:54.974Z,2334.38
2018-08-14T10:35:54.961Z,1333.13
2018-08-14T10:36:55.228Z,1209.38
2018-08-14T10:37:55.266Z,2469.38
2018-08-14T10:38:55.155Z,2475.00
2018-08-14T10:39:54.990Z,2829.38
2018-08-14T10:40:55.524Z,2688.75
2018-08-14T10:41:55.225Z,2683.13
2018-08-14T10:42:55.009Z,1496.25
2018-08-14T10:43:55.017Z,1215.00
2018-08-14T10:44:55.024Z,624.38
2018-08-14T10:45:55.033Z,613.13
2018-08-14T10:46:55.043Z,573.75
2018-08-14T10:47:55.047Z,630.00
2018-08-14T10:48:55.054Z,556.88
2018-08-14T10:49:55.064Z,551.25
2018-08-14T10:50:55.070Z,646.88
2018-08-14T10:51:55.076Z,804.38
2018-08-14T10:52:55.083Z,1265.63
2018-08-14T10:53:55.093Z,714.38
2018-08-14T10:54:55.099Z,849.38
2018-08-14T10:55:55.109Z,866.25
2018-08-14T10:56:55.115Z,731.25
2018-08-14T10:57:55.164Z,506.25
2018-08-14T10:58:55.128Z,630.00
2018-08-14T10:59:55.253Z,736.88
2018-08-14T11:00:55.140Z,579.38
2018-08-14T11:01:55.147Z,562.50
2018-08-14T11:02:55.163Z,1023.75
2018-08-14T11:03:55.161Z,2019.38
2018-08-14T11:04:55.186Z,1698.75
2018-08-14T11:05:55.175Z,1282.50
2018-08-14T11:06:55.206Z,1299.38
2018-08-14T11:07:55.188Z,1136.25
2018-08-14T11:08:55.194Z,973.13
2018-08-14T11:09:55.201Z,1085.63
2018-08-14T11:10:55.226Z,1192.50
2018-08-14T11:11:55.215Z,933.75
2018-08-14T11:12:55.220Z,736.88
2018-08-14T11:13:55.228Z,843.75
2018-08-14T11:14:55.235Z,652.50
2018-08-14T11:15:55.243Z,579.38
2018-08-14T11:16:56.364Z,534.38
2018-08-14T11:17:55.255Z,517.50
2018-08-14T11:18:55.262Z,523.13
2018-08-14T11:19:55.273Z,511.88
2018-08-14T11:20:55.276Z,517.50
2018-08-14T11:21:55.283Z,607.50
2018-08-14T11:22:55.291Z,495.00
2018-08-14T11:23:55.296Z,461.25
2018-08-14T11:24:55.379Z,376.88
2018-08-14T11:25:55.308Z,371.25
2018-08-14T11:26:55.314Z,579.38
2018-08-14T11:27:55.324Z,573.75
2018-08-14T11:28:55.327Z,624.38
2018-08-14T11:29:55.333Z,1006.88
2018-08-14T11:30:55.339Z,646.88
2018-08-14T11:31:55.345Z,646.88
2018-08-14T11:32:55.352Z,540.00
2018-08-14T11:33:55.357Z,483.75
2018-08-14T11:34:55.674Z,613.13
2018-08-14T11:35:55.370Z,405.00
2018-08-14T11:36:55.380Z,365.63
2018-08-14T11:37:55.382Z,320.63
2018-08-14T11:38:55.388Z,281.25
2018-08-14T11:39:55.491Z,241.88
2018-08-14T11:40:55.400Z,225.00
2018-08-14T11:41:55.414Z,208.13
2018-08-14T11:42:55.411Z,191.25
2018-08-14T11:43:55.417Z,185.63
2018-08-14T11:44:55.423Z,180.00
2018-08-14T11:45:55.427Z,174.38
2018-08-14T11:46:55.654Z,168.75
2018-08-14T11:47:55.748Z,163.13
2018-08-14T11:48:55.443Z,151.88
2018-08-14T11:49:55.448Z,146.25
2018-08-14T11:50:55.804Z,146.25
2018-08-14T11:51:55.576Z,146.25
2018-08-14T11:52:55.681Z,140.63
2018-08-14T11:53:55.469Z,135.00
2018-08-14T11:54:55.473Z,135.00
2018-08-14T11:55:55.479Z,135.00
2018-08-14T11:56:55.483Z,135.00
2018-08-14T11:57:55.491Z,140.63
2018-08-14T11:58:55.495Z,146.25
2018-08-14T11:59:55.580Z,157.50
2018-08-14T12:00:55.503Z,168.75
2018-08-14T12:01:55.523Z,180.00
2018-08-14T12:02:55.511Z,180.00
2018-08-14T12:03:55.516Z,185.63
2018-08-14T12:04:55.521Z,180.00
2018-08-14T12:05:55.524Z,185.63
2018-08-14T12:06:55.564Z,191.25
2018-08-14T12:07:55.533Z,196.88
2018-08-14T12:08:55.538Z,196.88
2018-08-14T12:09:55.541Z,196.88
2018-08-14T12:10:55.624Z,191.25
2018-08-14T12:11:55.551Z,191.25
2018-08-14T12:12:55.616Z,185.63
2018-08-14T12:13:55.560Z,185.63
2018-08-14T12:14:55.563Z,180.00
2018-08-14T12:15:55.569Z,180.00
2018-08-14T12:16:55.571Z,180.00
2018-08-14T12:17:55.577Z,174.38
2018-08-14T12:18:55.606Z,174.38
2018-08-14T12:19:55.585Z,180.00
2018-08-14T12:20:55.589Z,180.00
2018-08-14T12:21:55.599Z,185.63
2018-08-14T12:22:55.596Z,185.63
2018-08-14T12:23:55.752Z,185.63
2018-08-14T12:24:55.604Z,185.63
2018-08-14T12:25:55.610Z,185.63
2018-08-14T12:26:55.613Z,185.63
2018-08-14T12:27:55.619Z,191.25
2018-08-14T12:28:55.835Z,185.63
2018-08-14T12:29:55.830Z,191.25
2018-08-14T12:30:55.631Z,191.25
2018-08-14T12:31:55.635Z,191.25
2018-08-14T12:32:55.826Z,196.88
2018-08-14T12:33:55.809Z,202.50
2018-08-14T12:34:55.683Z,208.13
2018-08-14T12:35:55.650Z,225.00
2018-08-14T12:36:55.853Z,258.75
2018-08-14T12:37:55.864Z,309.38
2018-08-14T12:38:55.663Z,331.88
2018-08-14T12:39:55.895Z,371.25
2018-08-14T12:40:55.857Z,838.13
2018-08-14T12:41:55.676Z,1012.50
2018-08-14T12:42:55.682Z,663.75
2018-08-14T12:43:55.685Z,950.63
2018-08-14T12:44:55.688Z,832.50
2018-08-14T12:45:55.694Z,1260.00
2018-08-14T12:46:55.701Z,1614.38
2018-08-14T12:47:55.708Z,1490.63